createdAt,value
2023-02-06T00:01:26.544Z,17.30
2023-02-06T00:03:53.641Z,17.20
2023-02-06T00:06:20.575Z,17.20
2023-02-06T00:08:47.707Z,15.80
2023-02-06T00:11:17.023Z,14.30
2023-02-06T00:13:45.537Z,13.90
2023-02-06T00:16:20.368Z,14.20
2023-02-06T00:18:47.769Z,11.60
2023-02-06T00:21:15.207Z,12.30
2023-02-06T00:23:42.744Z,11.70
2023-02-06T00:26:09.686Z,13.60
2023-02-06T00:28:36.565Z,12.50
2023-02-06T00:31:06.826Z,13.10
2023-02-06T00:33:34.290Z,12.40
2023-02-06T00:36:01.714Z,11.00
2023-02-06T00:38:29.921Z,10.50
2023-02-06T00:40:57.169Z,11.40
2023-02-06T00:43:24.184Z,12.00
2023-02-06T00:45:52.635Z,11.20
2023-02-06T00:48:19.504Z,11.70
2023-02-06T00:50:48.704Z,11.40
2023-02-06T00:53:16.106Z,10.50
2023-02-06T00:55:42.877Z,13.80
2023-02-06T00:58:09.856Z,17.40
2023-02-06T01:00:37.019Z,17.60
2023-02-06T01:03:03.954Z,15.70
2023-02-06T01:05:30.824Z,16.60
2023-02-06T01:07:57.681Z,16.30
2023-02-06T01:10:24.545Z,15.50
2023-02-06T01:12:51.468Z,14.70
2023-02-06T01:15:18.759Z,15.60
2023-02-06T01:17:45.597Z,14.70
2023-02-06T01:20:13.785Z,12.70
2023-02-06T01:22:41.548Z,13.00
2023-02-06T01:25:08.879Z,11.90
2023-02-06T01:27:37.462Z,11.00
2023-02-06T01:30:06.016Z,10.40
2023-02-06T01:32:35.953Z,10.90
2023-02-06T01:35:02.776Z,10.10
2023-02-06T01:37:30.620Z,10.60
2023-02-06T01:39:57.287Z,10.10
2023-02-06T01:42:24.013Z,8.80
2023-02-06T01:45:24.698Z,8.80
2023-02-06T01:47:56.024Z,7.90
2023-02-06T01:50:23.136Z,9.80
2023-02-06T01:52:51.732Z,11.10
2023-02-06T01:55:18.562Z,11.40
2023-02-06T01:57:45.598Z,11.60
2023-02-06T02:00:13.057Z,11.40
2023-02-06T02:02:43.916Z,11.80
2023-02-06T02:05:12.553Z,12.80
2023-02-06T02:07:50.444Z,13.60
2023-02-06T02:10:17.444Z,16.30
2023-02-06T02:12:44.184Z,18.60
2023-02-06T02:15:10.969Z,19.40
2023-02-06T02:17:51.504Z,19.20
2023-02-06T02:20:46.173Z,18.60
2023-02-06T02:23:33.152Z,18.70
2023-02-06T02:26:05.628Z,19.10
2023-02-06T02:29:05.433Z,19.10
2023-02-06T02:34:34.078Z,15.50
2023-02-06T02:37:18.004Z,16.80
2023-02-06T02:39:53.628Z,14.10
2023-02-06T02:42:48.270Z,13.20
2023-02-06T02:45:17.719Z,11.70
2023-02-06T02:48:04.146Z,12.00
2023-02-06T02:50:32.526Z,12.80
2023-02-06T02:53:01.594Z,12.50
2023-02-06T02:55:28.449Z,13.20
2023-02-06T02:58:09.114Z,12.10
2023-02-06T03:00:43.802Z,10.30
2023-02-06T03:03:14.099Z,11.30
2023-02-06T03:05:52.420Z,13.40
2023-02-06T03:08:36.238Z,13.00
2023-02-06T03:11:20.101Z,11.00
2023-02-06T03:14:06.093Z,11.90
2023-02-06T03:16:43.828Z,12.90
2023-02-06T03:19:31.487Z,12.20
2023-02-06T03:21:58.368Z,12.00
2023-02-06T03:24:29.080Z,12.70
2023-02-06T03:27:00.222Z,11.70
2023-02-06T03:29:31.589Z,13.30
2023-02-06T03:32:24.216Z,17.10
2023-02-06T03:34:59.683Z,18.50
2023-02-06T03:37:27.769Z,20.50
2023-02-06T03:39:57.515Z,18.90
2023-02-06T03:42:25.813Z,19.60
2023-02-06T03:45:09.945Z,21.60
2023-02-06T03:47:38.880Z,18.90
2023-02-06T03:50:09.518Z,19.90
2023-02-06T03:52:41.103Z,18.60
2023-02-06T03:55:13.806Z,16.10
2023-02-06T03:57:44.069Z,13.60
2023-02-06T04:00:12.002Z,14.30
2023-02-06T04:02:39.879Z,14.30
2023-02-06T04:05:07.736Z,13.90
2023-02-06T04:07:37.292Z,13.70
2023-02-06T04:10:04.397Z,13.60
2023-02-06T04:12:31.944Z,15.20
2023-02-06T04:14:58.846Z,16.20
2023-02-06T04:17:43.087Z,15.00
2023-02-06T04:20:13.827Z,13.20
2023-02-06T04:22:41.290Z,13.30
2023-02-06T04:25:08.370Z,13.40
2023-02-06T04:27:35.892Z,14.50
2023-02-06T04:30:02.808Z,13.80
2023-02-06T04:32:29.608Z,14.90
2023-02-06T04:34:56.414Z,12.10
2023-02-06T04:37:23.205Z,17.40
2023-02-06T04:39:49.963Z,20.40
2023-02-06T04:42:16.868Z,21.60
2023-02-06T04:44:43.644Z,22.90
2023-02-06T04:47:10.422Z,21.90
2023-02-06T04:49:37.257Z,22.10
2023-02-06T04:52:04.150Z,21.70
2023-02-06T04:54:32.687Z,21.90
2023-02-06T04:57:00.413Z,21.30
2023-02-06T04:59:27.635Z,21.80
2023-02-06T05:01:54.465Z,20.50
2023-02-06T05:04:21.368Z,18.40
2023-02-06T05:06:48.171Z,18.10
2023-02-06T05:09:15.025Z,16.00
2023-02-06T05:11:41.881Z,14.70
2023-02-06T05:14:08.622Z,17.60
2023-02-06T05:16:35.273Z,18.70
2023-02-06T05:19:02.106Z,16.30
2023-02-06T05:21:29.029Z,17.50
2023-02-06T05:23:55.806Z,15.20
2023-02-06T05:26:22.809Z,17.50
2023-02-06T05:28:49.618Z,14.50
2023-02-06T05:31:20.078Z,15.20
2023-02-06T05:33:52.442Z,14.60
2023-02-06T05:36:20.206Z,16.90
2023-02-06T05:38:47.920Z,16.00
2023-02-06T05:41:15.645Z,15.80
2023-02-06T05:43:42.572Z,18.00
2023-02-06T05:46:09.728Z,16.60
2023-02-06T05:48:36.999Z,20.50
2023-02-06T05:51:03.982Z,25.00
2023-02-06T05:53:30.801Z,30.40
2023-02-06T05:55:58.295Z,29.50
2023-02-06T05:58:25.456Z,32.90
2023-02-06T06:00:52.249Z,29.20
2023-02-06T06:03:19.752Z,27.30
2023-02-06T06:05:47.314Z,26.00
2023-02-06T06:08:15.264Z,26.20
2023-02-06T06:10:42.167Z,25.80
2023-02-06T06:13:09.115Z,25.30
2023-02-06T06:15:36.228Z,24.10
2023-02-06T06:18:03.852Z,25.00
2023-02-06T06:20:30.579Z,24.10
2023-02-06T06:22:57.418Z,23.10
2023-02-06T06:25:24.292Z,24.30
2023-02-06T06:27:51.130Z,22.30
2023-02-06T06:30:18.032Z,24.60
2023-02-06T06:32:44.893Z,24.60
2023-02-06T06:35:11.686Z,24.20
2023-02-06T06:37:38.502Z,23.80
2023-02-06T06:40:05.854Z,25.60
2023-02-06T06:42:32.552Z,28.00
2023-02-06T06:44:59.227Z,27.80
2023-02-06T06:47:26.048Z,28.50
2023-02-06T06:49:52.827Z,27.30
2023-02-06T06:52:25.413Z,27.80
2023-02-06T06:54:53.346Z,23.20
2023-02-06T06:57:21.553Z,23.00
2023-02-06T06:59:48.437Z,23.80
2023-02-06T07:02:15.775Z,22.50
2023-02-06T07:04:43.155Z,21.60
2023-02-06T07:07:09.862Z,23.30
2023-02-06T07:09:37.070Z,24.40
2023-02-06T07:12:04.158Z,24.40
2023-02-06T07:14:30.910Z,25.90
2023-02-06T07:16:58.304Z,26.20
2023-02-06T07:19:25.039Z,25.40
2023-02-06T07:21:51.843Z,29.90
2023-02-06T07:24:19.171Z,25.90
2023-02-06T07:26:45.964Z,25.70
2023-02-06T07:29:12.808Z,25.40
2023-02-06T07:31:39.604Z,28.70
2023-02-06T07:34:06.494Z,29.80
2023-02-06T07:36:33.331Z,36.10
2023-02-06T07:39:03.395Z,40.10
2023-02-06T07:41:30.482Z,36.50
2023-02-06T07:43:57.361Z,31.50
2023-02-06T07:46:24.389Z,38.50
2023-02-06T07:48:51.298Z,32.80
2023-02-06T07:51:18.050Z,41.50
2023-02-06T07:53:44.847Z,40.90
2023-02-06T07:56:15.011Z,40.80
2023-02-06T07:58:42.153Z,57.50
2023-02-06T08:01:09.817Z,55.50
2023-02-06T08:03:37.023Z,50.20
2023-02-06T08:06:15.175Z,50.00
2023-02-06T08:08:43.051Z,42.20
2023-02-06T08:11:12.963Z,40.30
2023-02-06T08:16:10.425Z,42.40
2023-02-06T08:18:38.093Z,38.50
2023-02-06T08:21:07.704Z,38.90
2023-02-06T08:23:34.652Z,32.20
2023-02-06T08:26:14.818Z,32.60
2023-02-06T08:28:42.906Z,31.10
2023-02-06T08:31:21.030Z,31.70
2023-02-06T08:33:48.346Z,30.90
2023-02-06T08:36:16.489Z,35.20
2023-02-06T08:38:44.131Z,34.20
2023-02-06T08:41:29.450Z,32.70
2023-02-06T08:44:00.574Z,35.30
2023-02-06T08:46:29.490Z,38.00
2023-02-06T08:48:58.369Z,30.70
2023-02-06T08:51:29.160Z,35.90
2023-02-06T08:53:58.183Z,30.70
2023-02-06T08:56:25.394Z,30.80
2023-02-06T08:58:52.221Z,29.80
2023-02-06T09:01:19.250Z,26.80
2023-02-06T09:03:46.919Z,26.70
2023-02-06T09:06:15.945Z,27.00
2023-02-06T09:08:42.980Z,27.00
2023-02-06T09:11:18.197Z,26.90
2023-02-06T09:13:49.836Z,25.70
2023-02-06T09:16:20.685Z,25.30
2023-02-06T09:18:49.268Z,25.10
2023-02-06T09:21:19.967Z,17.80
2023-02-06T09:23:50.103Z,17.90
2023-02-06T09:26:23.644Z,17.40
2023-02-06T09:28:59.308Z,18.10
2023-02-06T09:31:27.761Z,13.20
2023-02-06T09:33:54.770Z,11.10
2023-02-06T09:36:23.299Z,8.80
2023-02-06T09:38:57.855Z,8.10
2023-02-06T09:41:32.540Z,7.90
2023-02-06T09:44:08.291Z,7.90
2023-02-06T09:46:39.651Z,8.70
2023-02-06T09:49:14.195Z,7.90
2023-02-06T09:51:55.982Z,8.80
2023-02-06T09:54:37.479Z,6.90
2023-02-06T09:57:26.081Z,7.80
2023-02-06T10:00:00.994Z,7.10
2023-02-06T10:02:36.856Z,7.80
2023-02-06T10:05:20.381Z,7.20
2023-02-06T10:08:07.442Z,6.90
2023-02-06T10:10:45.721Z,7.60
2023-02-06T10:13:33.320Z,8.70
2023-02-06T10:16:06.515Z,7.50
2023-02-06T10:18:39.108Z,7.30
2023-02-06T10:21:10.708Z,7.80
2023-02-06T10:23:51.916Z,7.60
2023-02-06T10:26:19.793Z,7.30
2023-02-06T10:28:56.357Z,6.80
2023-02-06T10:31:38.391Z,7.50
2023-02-06T10:34:33.841Z,5.90
2023-02-06T10:37:28.654Z,7.10
2023-02-06T10:40:17.341Z,7.30
2023-02-06T10:42:57.876Z,7.50
2023-02-06T10:45:39.023Z,6.30
2023-02-06T10:48:29.708Z,6.50
2023-02-06T10:51:09.427Z,5.90
2023-02-06T10:53:51.596Z,7.20
2023-02-06T10:56:26.815Z,6.50
2023-02-06T10:59:16.770Z,7.60
2023-02-06T11:01:47.683Z,7.10
2023-02-06T11:04:37.992Z,6.20
2023-02-06T11:07:13.443Z,5.70
2023-02-06T11:09:40.392Z,5.80
2023-02-06T11:12:23.460Z,7.20
2023-02-06T11:14:52.598Z,5.70
2023-02-06T11:17:23.452Z,5.80
2023-02-06T11:19:53.662Z,7.40
2023-02-06T11:22:31.238Z,6.90
2023-02-06T11:25:10.820Z,6.60
2023-02-06T11:27:37.725Z,5.70
2023-02-06T11:30:09.987Z,6.60
2023-02-06T11:32:41.349Z,5.90
2023-02-06T11:35:17.792Z,6.40
2023-02-06T11:37:45.247Z,7.10
2023-02-06T11:40:23.140Z,6.40
2023-02-06T11:43:13.325Z,6.20
2023-02-06T11:45:41.347Z,5.50
2023-02-06T11:48:36.142Z,5.50
2023-02-06T11:51:04.432Z,6.30
2023-02-06T11:53:31.833Z,6.90
2023-02-06T11:56:02.127Z,7.30
2023-02-06T11:58:30.076Z,7.30
2023-02-06T12:01:06.099Z,6.60
2023-02-06T12:03:32.877Z,6.10
2023-02-06T12:06:22.157Z,6.50
2023-02-06T12:08:50.960Z,5.20
2023-02-06T12:11:42.060Z,6.80
2023-02-06T12:14:21.425Z,5.80
2023-02-06T12:16:51.228Z,6.60
2023-02-06T12:19:31.846Z,7.20
2023-02-06T12:22:04.940Z,6.00
2023-02-06T12:24:37.365Z,7.10
2023-02-06T12:27:22.985Z,6.40
2023-02-06T12:30:27.020Z,6.10
2023-02-06T12:33:12.559Z,6.40
2023-02-06T12:35:56.284Z,7.60
2023-02-06T12:38:23.322Z,6.40
2023-02-06T12:41:24.347Z,6.60
2023-02-06T12:44:01.113Z,7.90
2023-02-06T12:46:30.157Z,6.70
2023-02-06T12:49:02.478Z,7.20
2023-02-06T12:51:40.738Z,6.80
2023-02-06T12:54:19.356Z,7.50
2023-02-06T12:56:51.578Z,7.30
2023-02-06T12:59:43.714Z,7.00
2023-02-06T13:02:47.927Z,7.80
2023-02-06T13:05:35.419Z,7.80
2023-02-06T13:08:11.811Z,6.90
2023-02-06T13:10:40.106Z,6.50
2023-02-06T13:13:21.906Z,5.70
2023-02-06T13:15:55.106Z,5.10
2023-02-06T13:18:42.077Z,6.90
2023-02-06T13:21:22.481Z,7.20
2023-02-06T13:24:17.133Z,5.90
2023-02-06T13:26:51.821Z,6.10
2023-02-06T13:29:39.948Z,7.20
2023-02-06T13:32:12.998Z,6.00
2023-02-06T13:34:49.146Z,6.50
2023-02-06T13:37:43.887Z,7.10
2023-02-06T13:40:24.928Z,5.90
2023-02-06T13:42:59.456Z,5.40
2023-02-06T13:45:28.167Z,6.10
2023-02-06T13:48:19.824Z,6.40
2023-02-06T13:51:10.288Z,6.60
2023-02-06T13:53:54.474Z,5.80
2023-02-06T13:56:47.750Z,6.00
2023-02-06T13:59:36.214Z,6.70
2023-02-06T14:02:13.334Z,6.00
2023-02-06T14:04:44.186Z,5.50
2023-02-06T14:07:26.155Z,6.00
2023-02-06T14:10:06.326Z,6.20
2023-02-06T14:12:45.619Z,6.70
2023-02-06T14:15:29.027Z,6.30
2023-02-06T14:18:12.530Z,6.00
2023-02-06T14:21:07.346Z,11.30
2023-02-06T14:24:02.033Z,7.30
2023-02-06T14:26:45.697Z,8.80
2023-02-06T14:29:40.854Z,8.20
2023-02-06T14:32:19.537Z,6.70
2023-02-06T14:35:14.186Z,6.50
2023-02-06T14:38:06.255Z,5.90
2023-02-06T14:40:41.714Z,9.10
2023-02-06T14:43:17.887Z,15.30
2023-02-06T14:46:05.476Z,11.30
2023-02-06T14:48:44.491Z,8.20
2023-02-06T14:51:28.232Z,7.70
2023-02-06T14:54:07.442Z,7.10
2023-02-06T14:56:38.108Z,6.40
2023-02-06T14:59:15.729Z,7.70
2023-02-06T15:01:45.054Z,7.20
2023-02-06T15:04:15.562Z,7.60
2023-02-06T15:06:51.976Z,6.80
2023-02-06T15:09:31.533Z,6.40
2023-02-06T15:12:01.490Z,6.50
2023-02-06T15:14:33.142Z,7.50
2023-02-06T15:17:02.890Z,7.90
2023-02-06T15:22:15.030Z,6.00
2023-02-06T15:25:05.256Z,7.50
2023-02-06T15:27:34.741Z,6.00
2023-02-06T15:30:04.408Z,7.30
2023-02-06T15:32:37.509Z,7.00
2023-02-06T15:35:18.444Z,11.40
2023-02-06T15:37:45.491Z,10.30
2023-02-06T15:40:21.323Z,9.00
2023-02-06T15:42:51.145Z,9.60
2023-02-06T15:47:55.250Z,11.60
2023-02-06T15:50:28.039Z,16.90
2023-02-06T15:52:56.059Z,14.20
2023-02-06T15:55:30.050Z,11.10
2023-02-06T15:57:59.822Z,9.60
2023-02-06T16:00:31.937Z,10.60
2023-02-06T16:03:07.971Z,11.00
2023-02-06T16:05:42.624Z,10.20
2023-02-06T16:08:33.491Z,9.00
2023-02-06T16:11:05.903Z,9.30
2023-02-06T16:13:36.260Z,10.30
2023-02-06T16:16:07.811Z,12.60
2023-02-06T16:18:40.333Z,9.50
2023-02-06T16:21:16.094Z,9.70
2023-02-06T16:24:02.680Z,10.90
2023-02-06T16:26:32.191Z,12.70
2023-02-06T16:29:15.467Z,12.00
2023-02-06T16:31:45.396Z,13.40
2023-02-06T16:34:28.820Z,14.80
2023-02-06T16:36:55.590Z,15.90
2023-02-06T16:39:23.608Z,16.10
2023-02-06T16:41:52.865Z,13.90
2023-02-06T16:44:20.962Z,12.60
2023-02-06T16:46:48.150Z,16.40
2023-02-06T16:49:20.480Z,15.70
2023-02-06T16:51:48.806Z,13.50
2023-02-06T16:54:23.748Z,12.70
2023-02-06T16:56:51.578Z,16.00
2023-02-06T16:59:18.358Z,17.40
2023-02-06T17:01:45.075Z,18.10
2023-02-06T17:04:11.933Z,19.60
2023-02-06T17:06:38.786Z,20.20
2023-02-06T17:09:09.151Z,18.70
2023-02-06T17:11:37.153Z,19.00
2023-02-06T17:14:04.937Z,20.00
2023-02-06T17:16:32.286Z,16.60
2023-02-06T17:18:59.886Z,17.80
2023-02-06T17:21:29.761Z,17.80
2023-02-06T17:26:23.808Z,16.40
2023-02-06T17:28:51.729Z,16.40
2023-02-06T17:31:19.672Z,17.50
2023-02-06T17:33:46.509Z,17.30
2023-02-06T17:36:29.640Z,17.10
2023-02-06T17:38:59.365Z,19.40
2023-02-06T17:41:27.214Z,18.10
2023-02-06T17:43:54.116Z,21.10
2023-02-06T17:46:20.899Z,20.90
2023-02-06T17:48:47.728Z,25.30
2023-02-06T17:51:14.588Z,24.20
2023-02-06T17:53:41.356Z,22.70
2023-02-06T17:56:12.948Z,22.20
2023-02-06T17:58:43.455Z,22.00
2023-02-06T18:01:15.964Z,21.10
2023-02-06T18:03:43.043Z,21.40
2023-02-06T18:06:11.093Z,23.40
2023-02-06T18:08:39.034Z,22.40
2023-02-06T18:11:14.723Z,22.60
2023-02-06T18:13:43.011Z,22.30
2023-02-06T18:16:15.518Z,23.80
2023-02-06T18:18:42.760Z,25.40
2023-02-06T18:21:10.558Z,25.10
2023-02-06T18:23:38.242Z,27.10
2023-02-06T18:26:07.628Z,25.70
2023-02-06T18:28:36.004Z,22.30
2023-02-06T18:31:03.279Z,22.30
2023-02-06T18:33:32.186Z,21.40
2023-02-06T18:35:59.116Z,19.00
2023-02-06T18:38:26.212Z,20.10
2023-02-06T18:40:52.958Z,22.50
2023-02-06T18:43:19.712Z,24.10
2023-02-06T18:45:46.572Z,22.90
2023-02-06T18:48:13.783Z,24.70
2023-02-06T18:50:42.860Z,25.40
2023-02-06T18:53:10.173Z,29.50
2023-02-06T18:55:37.585Z,30.30
2023-02-06T18:58:06.134Z,30.40
2023-02-06T19:00:36.009Z,29.90
2023-02-06T19:03:03.706Z,29.70
2023-02-06T19:05:35.041Z,28.20
2023-02-06T19:08:01.951Z,30.00
2023-02-06T19:10:29.433Z,29.30
2023-02-06T19:12:56.396Z,26.50
2023-02-06T19:15:23.114Z,30.60
2023-02-06T19:17:50.344Z,25.10
2023-02-06T19:20:17.259Z,27.60
2023-02-06T19:22:44.027Z,26.60
2023-02-06T19:25:14.608Z,23.40
2023-02-06T19:27:41.870Z,19.10
2023-02-06T19:30:09.413Z,19.30
2023-02-06T19:32:36.904Z,19.50
2023-02-06T19:35:04.715Z,22.60
2023-02-06T19:37:31.952Z,23.90
2023-02-06T19:39:58.990Z,25.40
2023-02-06T19:42:25.753Z,22.40
2023-02-06T19:44:55.115Z,25.20
2023-02-06T19:47:22.305Z,21.60
2023-02-06T19:49:51.734Z,19.90
2023-02-06T19:52:18.930Z,21.80
2023-02-06T19:54:47.947Z,22.60
2023-02-06T19:57:16.207Z,26.10
2023-02-06T19:59:43.352Z,29.50
2023-02-06T20:02:15.319Z,26.40
2023-02-06T20:04:42.662Z,24.90
2023-02-06T20:07:09.555Z,29.10
2023-02-06T20:09:41.381Z,29.70
2023-02-06T20:12:13.114Z,27.40
2023-02-06T20:14:40.631Z,27.20
2023-02-06T20:17:07.484Z,24.70
2023-02-06T20:19:34.578Z,26.60
2023-02-06T20:22:03.085Z,28.70
2023-02-06T20:24:32.552Z,26.60
2023-02-06T20:27:04.562Z,25.20
2023-02-06T20:29:34.326Z,24.60
2023-02-06T20:34:29.636Z,24.60
2023-02-06T20:36:57.463Z,22.50
2023-02-06T20:39:24.973Z,21.50
2023-02-06T20:41:52.551Z,23.00
2023-02-06T20:44:20.391Z,25.60
2023-02-06T20:46:47.544Z,26.90
2023-02-06T20:49:20.440Z,26.60
2023-02-06T20:51:49.365Z,26.20
2023-02-06T20:54:17.884Z,26.80
2023-02-06T20:56:45.219Z,25.80
2023-02-06T20:59:14.697Z,28.00
2023-02-06T21:01:42.205Z,25.60
2023-02-06T21:04:12.399Z,28.50
2023-02-06T21:06:40.702Z,25.60
2023-02-06T21:09:09.385Z,23.10
2023-02-06T21:11:39.872Z,24.30
2023-02-06T21:14:07.394Z,25.10
2023-02-06T21:16:35.768Z,24.60
2023-02-06T21:19:04.786Z,23.40
2023-02-06T21:21:32.015Z,22.40
2023-02-06T21:23:58.974Z,23.30
2023-02-06T21:26:27.247Z,26.10
2023-02-06T21:28:55.414Z,28.20
2023-02-06T21:31:25.179Z,25.60
2023-02-06T21:33:53.022Z,27.20
2023-02-06T21:36:21.316Z,26.40
2023-02-06T21:38:48.313Z,25.70
2023-02-06T21:41:17.999Z,26.90
2023-02-06T21:46:13.507Z,26.00
2023-02-06T21:48:41.201Z,27.70
2023-02-06T21:51:13.735Z,27.00
2023-02-06T21:53:42.063Z,27.10
2023-02-06T21:56:21.057Z,25.20
2023-02-06T21:58:49.164Z,26.50
2023-02-06T22:01:19.352Z,27.30
2023-02-06T22:03:48.067Z,25.70
2023-02-06T22:06:15.430Z,25.70
2023-02-06T22:08:45.388Z,26.50
2023-02-06T22:11:24.762Z,25.90
2023-02-06T22:13:52.592Z,25.90
2023-02-06T22:16:22.108Z,32.70
2023-02-06T22:18:49.450Z,31.40
2023-02-06T22:21:22.448Z,30.70
2023-02-06T22:23:51.117Z,30.70
2023-02-06T22:26:20.733Z,30.70
2023-02-06T22:28:50.498Z,28.50
2023-02-06T22:33:47.021Z,27.00
2023-02-06T22:36:20.243Z,29.80
2023-02-06T22:38:48.918Z,32.20
2023-02-06T22:41:18.195Z,32.90
2023-02-06T22:43:46.107Z,30.60
2023-02-06T22:46:28.345Z,30.30
2023-02-06T22:48:55.531Z,31.90
2023-02-06T22:51:23.485Z,30.00
2023-02-06T22:53:50.932Z,33.50
2023-02-06T22:56:27.500Z,32.70
2023-02-06T22:58:59.446Z,35.60
2023-02-06T23:01:33.133Z,34.40
2023-02-06T23:04:01.660Z,32.80
2023-02-06T23:06:30.214Z,35.60
2023-02-06T23:08:57.624Z,37.10
2023-02-06T23:11:25.715Z,33.20
2023-02-06T23:13:55.805Z,34.90
2023-02-06T23:16:22.897Z,32.90
2023-02-06T23:18:50.546Z,33.60
2023-02-06T23:21:20.526Z,38.50
2023-02-06T23:23:47.611Z,35.30
2023-02-06T23:26:16.202Z,34.30
2023-02-06T23:28:43.509Z,33.70
2023-02-06T23:31:10.878Z,38.80
2023-02-06T23:33:38.293Z,38.30
2023-02-06T23:36:12.085Z,37.50
2023-02-06T23:38:39.320Z,38.10
2023-02-06T23:41:19.662Z,36.40
2023-02-06T23:43:55.887Z,35.70
2023-02-06T23:46:23.152Z,38.50
2023-02-06T23:48:50.940Z,38.20
2023-02-06T23:51:19.326Z,32.90
2023-02-06T23:53:46.330Z,25.60
2023-02-06T23:56:19.296Z,37.00
2023-02-06T23:58:46.166Z,35.90
